sensor_id;sensor_type;location;lat;lon;timestamp;pressure;altitude;pressure_sealevel;temperature;humidity
32456;BME280;18912;43.270;27.942;2022-09-20T00:01:11;97899.38;;;15.29;59.88
32456;BME280;18912;43.270;27.942;2022-09-20T00:03:40;97898.59;;;15.45;59.89
32456;BME280;18912;43.270;27.942;2022-09-20T00:06:09;97889.13;;;15.47;59.78
32456;BME280;18912;43.270;27.942;2022-09-20T00:08:35;97890.06;;;15.53;59.55
32456;BME280;18912;43.270;27.942;2022-09-20T00:11:02;97890.56;;;15.38;60.38
32456;BME280;18912;43.270;27.942;2022-09-20T00:13:29;97888.84;;;15.21;61.05
32456;BME280;18912;43.270;27.942;2022-09-20T00:15:54;97886.69;;;14.94;61.69
32456;BME280;18912;43.270;27.942;2022-09-20T00:18:20;97877.13;;;15.20;61.61
32456;BME280;18912;43.270;27.942;2022-09-20T00:20:47;97869.22;;;15.19;61.77
32456;BME280;18912;43.270;27.942;2022-09-20T00:23:13;97876.72;;;15.00;62.33
32456;BME280;18912;43.270;27.942;2022-09-20T00:25:39;97862.38;;;15.05;62.58
32456;BME280;18912;43.270;27.942;2022-09-20T00:28:05;97860.16;;;15.02;62.54
32456;BME280;18912;43.270;27.942;2022-09-20T00:30:32;97849.00;;;15.03;62.18
32456;BME280;18912;43.270;27.942;2022-09-20T00:32:58;97857.44;;;15.30;62.00
32456;BME280;18912;43.270;27.942;2022-09-20T00:35:23;97853.53;;;15.26;62.20
32456;BME280;18912;43.270;27.942;2022-09-20T00:37:49;97849.47;;;15.12;62.56
32456;BME280;18912;43.270;27.942;2022-09-20T00:40:17;97853.28;;;14.99;62.94
32456;BME280;18912;43.270;27.942;2022-09-20T00:42:45;97845.47;;;15.02;63.07
32456;BME280;18912;43.270;27.942;2022-09-20T00:45:20;97843.31;;;15.05;62.94
32456;BME280;18912;43.270;27.942;2022-09-20T00:55:47;97829.13;;;15.02;62.97
32456;BME280;18912;43.270;27.942;2022-09-20T00:58:14;97838.13;;;15.03;62.82
32456;BME280;18912;43.270;27.942;2022-09-20T01:00:42;97838.97;;;15.04;62.59
32456;BME280;18912;43.270;27.942;2022-09-20T01:03:09;97824.84;;;15.07;62.48
32456;BME280;18912;43.270;27.942;2022-09-20T01:05:38;97839.16;;;15.14;62.29
32456;BME280;18912;43.270;27.942;2022-09-20T01:08:04;97847.38;;;15.02;62.41
32456;BME280;18912;43.270;27.942;2022-09-20T01:10:31;97845.38;;;15.26;61.69
32456;BME280;18912;43.270;27.942;2022-09-20T01:12:57;97847.50;;;15.24;61.90
32456;BME280;18912;43.270;27.942;2022-09-20T01:15:23;97842.66;;;15.26;61.64
32456;BME280;18912;43.270;27.942;2022-09-20T01:17:53;97851.16;;;15.29;61.74
32456;BME280;18912;43.270;27.942;2022-09-20T01:20:23;97859.91;;;15.43;61.27
32456;BME280;18912;43.270;27.942;2022-09-20T01:28:02;97862.59;;;15.15;62.31
32456;BME280;18912;43.270;27.942;2022-09-20T01:30:37;97855.38;;;15.09;62.01
32456;BME280;18912;43.270;27.942;2022-09-20T01:33:27;97864.63;;;15.36;61.25
32456;BME280;18912;43.270;27.942;2022-09-20T01:35:53;97858.34;;;15.35;61.47
32456;BME280;18912;43.270;27.942;2022-09-20T01:41:11;97869.41;;;15.29;61.64
32456;BME280;18912;43.270;27.942;2022-09-20T01:43:54;97875.34;;;15.54;61.02
32456;BME280;18912;43.270;27.942;2022-09-20T01:48:57;97869.16;;;15.42;61.45
32456;BME280;18912;43.270;27.942;2022-09-20T02:00:18;97867.28;;;15.31;62.17
32456;BME280;18912;43.270;27.942;2022-09-20T02:08:34;97871.97;;;15.47;61.97
32456;BME280;18912;43.270;27.942;2022-09-20T02:11:15;97876.13;;;15.38;62.03
32456;BME280;18912;43.270;27.942;2022-09-20T02:16:43;97875.16;;;15.72;60.93
32456;BME280;18912;43.270;27.942;2022-09-20T02:27:54;97879.28;;;15.74;61.02
32456;BME280;18912;43.270;27.942;2022-09-20T02:49:45;97897.56;;;15.46;61.45
32456;BME280;18912;43.270;27.942;2022-09-20T02:52:30;97900.56;;;15.61;61.05
32456;BME280;18912;43.270;27.942;2022-09-20T02:55:17;97895.13;;;15.61;60.93
32456;BME280;18912;43.270;27.942;2022-09-20T03:00:52;97904.63;;;15.75;60.43
32456;BME280;18912;43.270;27.942;2022-09-20T03:03:43;97906.31;;;15.93;60.00
32456;BME280;18912;43.270;27.942;2022-09-20T03:09:55;97915.59;;;16.08;59.47
32456;BME280;18912;43.270;27.942;2022-09-20T03:12:19;97912.69;;;15.98;59.20
32456;BME280;18912;43.270;27.942;2022-09-20T03:15:14;97911.50;;;15.94;59.58
32456;BME280;18912;43.270;27.942;2022-09-20T03:25:50;97930.72;;;15.71;60.35
32456;BME280;18912;43.270;27.942;2022-09-20T03:34:15;97931.28;;;15.73;60.34
32456;BME280;18912;43.270;27.942;2022-09-20T03:43:03;97931.63;;;15.37;61.68
32456;BME280;18912;43.270;27.942;2022-09-20T03:45:50;97934.19;;;15.27;62.04
32456;BME280;18912;43.270;27.942;2022-09-20T03:51:27;97934.56;;;15.19;62.45
32456;BME280;18912;43.270;27.942;2022-09-20T03:57:11;97932.00;;;15.01;63.48
32456;BME280;18912;43.270;27.942;2022-09-20T04:05:13;97951.31;;;14.64;65.26
32456;BME280;18912;43.270;27.942;2022-09-20T04:10:56;97948.81;;;14.63;65.17
32456;BME280;18912;43.270;27.942;2022-09-20T04:19:34;97948.34;;;14.89;64.59
32456;BME280;18912;43.270;27.942;2022-09-20T04:22:04;97940.53;;;14.46;65.68
32456;BME280;18912;43.270;27.942;2022-09-20T04:24:51;97938.53;;;14.65;65.52
32456;BME280;18912;43.270;27.942;2022-09-20T04:38:02;97950.38;;;14.47;66.20
32456;BME280;18912;43.270;27.942;2022-09-20T04:50:01;97952.47;;;14.34;65.53
32456;BME280;18912;43.270;27.942;2022-09-20T04:53:13;97957.56;;;14.30;65.64
32456;BME280;18912;43.270;27.942;2022-09-20T04:56:52;97968.22;;;14.55;65.16
32456;BME280;18912;43.270;27.942;2022-09-20T05:14:36;97956.13;;;14.28;64.92
32456;BME280;18912;43.270;27.942;2022-09-20T05:20:10;97950.00;;;14.44;64.35
32456;BME280;18912;43.270;27.942;2022-09-20T05:26:02;97950.72;;;14.39;64.27
32456;BME280;18912;43.270;27.942;2022-09-20T05:28:55;97950.72;;;14.51;63.65
32456;BME280;18912;43.270;27.942;2022-09-20T05:31:33;97948.34;;;14.66;63.13
32456;BME280;18912;43.270;27.942;2022-09-20T05:39:58;97946.63;;;15.23;61.66
32456;BME280;18912;43.270;27.942;2022-09-20T05:45:27;97940.22;;;15.29;59.92
32456;BME280;18912;43.270;27.942;2022-09-20T05:48:09;97959.91;;;15.87;58.78
32456;BME280;18912;43.270;27.942;2022-09-20T05:50:48;97952.00;;;16.02;56.55
32456;BME280;18912;43.270;27.942;2022-09-20T05:58:55;97947.13;;;17.25;53.35
32456;BME280;18912;43.270;27.942;2022-09-20T06:09:37;97946.78;;;17.60;52.17
32456;BME280;18912;43.270;27.942;2022-09-20T06:15:02;97955.56;;;17.89;51.22
32456;BME280;18912;43.270;27.942;2022-09-20T06:20:22;97965.94;;;18.13;50.66
32456;BME280;18912;43.270;27.942;2022-09-20T06:22:59;97978.09;;;18.86;49.60
32456;BME280;18912;43.270;27.942;2022-09-20T06:25:40;97980.72;;;18.76;48.89
32456;BME280;18912;43.270;27.942;2022-09-20T06:28:24;97980.94;;;19.06;48.00
32456;BME280;18912;43.270;27.942;2022-09-20T06:30:53;97973.47;;;19.38;46.85
32456;BME280;18912;43.270;27.942;2022-09-20T06:33:21;97981.31;;;18.83;47.43
32456;BME280;18912;43.270;27.942;2022-09-20T06:38:54;97979.56;;;19.45;46.35
32456;BME280;18912;43.270;27.942;2022-09-20T06:41:42;97967.94;;;19.28;46.84
32456;BME280;18912;43.270;27.942;2022-09-20T06:44:08;97970.06;;;19.16;46.58
32456;BME280;18912;43.270;27.942;2022-09-20T06:46:35;97974.94;;;19.55;46.66
32456;BME280;18912;43.270;27.942;2022-09-20T06:49:02;97975.31;;;19.79;45.26
32456;BME280;18912;43.270;27.942;2022-09-20T06:51:35;97973.66;;;19.83;45.04
32456;BME280;18912;43.270;27.942;2022-09-20T06:54:01;97973.25;;;20.31;44.44
32456;BME280;18912;43.270;27.942;2022-09-20T06:56:29;97966.88;;;20.16;44.17
32456;BME280;18912;43.270;27.942;2022-09-20T06:58:55;97982.06;;;20.64;43.29
32456;BME280;18912;43.270;27.942;2022-09-20T07:01:21;97967.16;;;20.14;43.04
32456;BME280;18912;43.270;27.942;2022-09-20T07:03:47;97977.03;;;20.10;43.21
32456;BME280;18912;43.270;27.942;2022-09-20T07:06:13;97968.59;;;20.42;42.74
32456;BME280;18912;43.270;27.942;2022-09-20T07:08:42;97979.31;;;20.79;41.83
32456;BME280;18912;43.270;27.942;2022-09-20T07:11:15;97975.19;;;20.81;41.99
32456;BME280;18912;43.270;27.942;2022-09-20T07:13:42;97977.09;;;21.11;41.40
32456;BME280;18912;43.270;27.942;2022-09-20T07:16:11;97988.03;;;21.41;40.57
32456;BME280;18912;43.270;27.942;2022-09-20T07:18:38;97987.81;;;21.17;39.69
32456;BME280;18912;43.270;27.942;2022-09-20T07:21:06;97984.19;;;21.32;40.14
32456;BME280;18912;43.270;27.942;2022-09-20T07:23:31;98001.63;;;21.91;39.34
32456;BME280;18912;43.270;27.942;2022-09-20T07:25:57;98003.56;;;22.35;38.51
32456;BME280;18912;43.270;27.942;2022-09-20T07:28:29;98003.31;;;22.31;37.12
32456;BME280;18912;43.270;27.942;2022-09-20T07:30:56;98001.59;;;22.84;36.43
32456;BME280;18912;43.270;27.942;2022-09-20T07:33:21;98009.72;;;22.99;35.67
32456;BME280;18912;43.270;27.942;2022-09-20T07:35:50;98011.16;;;23.25;35.36
32456;BME280;18912;43.270;27.942;2022-09-20T07:38:18;98019.22;;;23.45;34.88
32456;BME280;18912;43.270;27.942;2022-09-20T07:40:43;98019.13;;;22.98;34.80
32456;BME280;18912;43.270;27.942;2022-09-20T07:43:11;98022.75;;;22.50;36.13
32456;BME280;18912;43.270;27.942;2022-09-20T07:45:37;98004.75;;;22.23;36.43
32456;BME280;18912;43.270;27.942;2022-09-20T07:48:05;98011.84;;;21.86;36.54
32456;BME280;18912;43.270;27.942;2022-09-20T07:50:34;98013.03;;;22.67;36.15
32456;BME280;18912;43.270;27.942;2022-09-20T07:52:59;98011.38;;;23.57;34.92
32456;BME280;18912;43.270;27.942;2022-09-20T07:55:25;98001.84;;;23.92;34.80
32456;BME280;18912;43.270;27.942;2022-09-20T07:57:50;98012.44;;;23.85;34.61
32456;BME280;18912;43.270;27.942;2022-09-20T08:00:16;98009.78;;;23.75;35.23
32456;BME280;18912;43.270;27.942;2022-09-20T08:02:42;98006.75;;;23.76;34.83
32456;BME280;18912;43.270;27.942;2022-09-20T08:05:09;98009.81;;;24.91;33.71
32456;BME280;18912;43.270;27.942;2022-09-20T08:07:35;97997.75;;;24.50;34.09
32456;BME280;18912;43.270;27.942;2022-09-20T08:10:01;98006.50;;;23.49;34.25
32456;BME280;18912;43.270;27.942;2022-09-20T08:12:27;98001.41;;;23.04;35.58
32456;BME280;18912;43.270;27.942;2022-09-20T08:14:52;98011.56;;;23.42;34.56
32456;BME280;18912;43.270;27.942;2022-09-20T08:17:18;98014.41;;;23.56;33.64
32456;BME280;18912;43.270;27.942;2022-09-20T08:19:43;98006.03;;;24.69;33.41
32456;BME280;18912;43.270;27.942;2022-09-20T08:22:10;98010.13;;;24.53;31.82
32456;BME280;18912;43.270;27.942;2022-09-20T08:24:37;98022.66;;;24.64;30.55
32456;BME280;18912;43.270;27.942;2022-09-20T08:27:02;98023.88;;;24.95;31.04
32456;BME280;18912;43.270;27.942;2022-09-20T08:29:28;98022.53;;;26.11;30.19
32456;BME280;18912;43.270;27.942;2022-09-20T08:31:54;98030.66;;;26.57;28.52
32456;BME280;18912;43.270;27.942;2022-09-20T08:34:22;98023.75;;;26.19;28.79
32456;BME280;18912;43.270;27.942;2022-09-20T08:36:48;98033.19;;;25.77;29.61
32456;BME280;18912;43.270;27.942;2022-09-20T08:39:16;98034.72;;;25.83;29.73
32456;BME280;18912;43.270;27.942;2022-09-20T08:42:38;98025.81;;;26.00;29.08
32456;BME280;18912;43.270;27.942;2022-09-20T08:45:00;98031.25;;;26.18;29.11
32456;BME280;18912;43.270;27.942;2022-09-20T08:47:33;98015.66;;;26.58;28.50
32456;BME280;18912;43.270;27.942;2022-09-20T08:50:03;98015.63;;;27.60;27.60
32456;BME280;18912;43.270;27.942;2022-09-20T08:52:34;98016.25;;;28.52;27.00
32456;BME280;18912;43.270;27.942;2022-09-20T08:55:02;98005.56;;;27.20;27.78
32456;BME280;18912;43.270;27.942;2022-09-20T08:57:31;97996.38;;;28.03;27.59
32456;BME280;18912;43.270;27.942;2022-09-20T09:00:03;97997.91;;;28.26;27.18
32456;BME280;18912;43.270;27.942;2022-09-20T09:02:30;97990.47;;;28.04;27.31
32456;BME280;18912;43.270;27.942;2022-09-20T09:04:56;97982.50;;;27.72;27.59
32456;BME280;18912;43.270;27.942;2022-09-20T09:07:24;97994.00;;;27.79;27.27
32456;BME280;18912;43.270;27.942;2022-09-20T09:09:54;97993.66;;;27.81;26.88
32456;BME280;18912;43.270;27.942;2022-09-20T09:12:26;97985.38;;;28.97;25.21
32456;BME280;18912;43.270;27.942;2022-09-20T09:14:57;97986.31;;;28.84;25.09
32456;BME280;18912;43.270;27.942;2022-09-20T09:17:26;97987.78;;;29.07;24.84
32456;BME280;18912;43.270;27.942;2022-09-20T09:30:45;97972.28;;;27.90;24.45
32456;BME280;18912;43.270;27.942;2022-09-20T09:38:23;97977.16;;;28.49;24.30
32456;BME280;18912;43.270;27.942;2022-09-20T09:41:00;97995.75;;;28.14;24.57
32456;BME280;18912;43.270;27.942;2022-09-20T09:43:31;98003.88;;;28.76;24.52
32456;BME280;18912;43.270;27.942;2022-09-20T09:46:16;97997.81;;;28.56;23.69
32456;BME280;18912;43.270;27.942;2022-09-20T09:48:47;97990.19;;;28.23;24.77
32456;BME280;18912;43.270;27.942;2022-09-20T09:51:15;98005.69;;;28.07;24.27
32456;BME280;18912;43.270;27.942;2022-09-20T09:53:41;97999.16;;;27.63;24.85
32456;BME280;18912;43.270;27.942;2022-09-20T10:01:44;97994.44;;;26.89;25.45
32456;BME280;18912;43.270;27.942;2022-09-20T10:07:00;97992.16;;;27.35;24.88
32456;BME280;18912;43.270;27.942;2022-09-20T10:09:39;98005.50;;;25.90;25.56
32456;BME280;18912;43.270;27.942;2022-09-20T10:21:07;97990.97;;;26.84;25.50
32456;BME280;18912;43.270;27.942;2022-09-20T10:34:48;97992.34;;;27.47;24.96
32456;BME280;18912;43.270;27.942;2022-09-20T10:42:50;97983.06;;;27.21;25.65
32456;BME280;18912;43.270;27.942;2022-09-20T10:46:01;97974.41;;;26.56;26.92
32456;BME280;18912;43.270;27.942;2022-09-20T10:48:43;97973.91;;;27.21;26.50
32456;BME280;18912;43.270;27.942;2022-09-20T10:54:39;97965.94;;;26.61;27.15
32456;BME280;18912;43.270;27.942;2022-09-20T10:56:51;97980.72;;;26.35;27.03
32456;BME280;18912;43.270;27.942;2022-09-20T11:02:05;97981.56;;;26.22;28.33
32456;BME280;18912;43.270;27.942;2022-09-20T11:10:19;97964.59;;;25.01;28.38
32456;BME280;18912;43.270;27.942;2022-09-20T11:12:52;97960.09;;;25.05;29.12
32456;BME280;18912;43.270;27.942;2022-09-20T11:15:26;97965.31;;;25.66;28.89
32456;BME280;18912;43.270;27.942;2022-09-20T11:20:46;97962.63;;;25.61;28.97
32456;BME280;18912;43.270;27.942;2022-09-20T11:23:21;97967.78;;;25.67;27.96
32456;BME280;18912;43.270;27.942;2022-09-20T11:25:54;97972.28;;;25.50;26.98
32456;BME280;18912;43.270;27.942;2022-09-20T11:28:41;97964.28;;;25.48;27.97
32456;BME280;18912;43.270;27.942;2022-09-20T11:33:45;97961.44;;;24.57;27.15
32456;BME280;18912;43.270;27.942;2022-09-20T11:41:39;97958.75;;;25.02;28.25
32456;BME280;18912;43.270;27.942;2022-09-20T11:44:10;97956.78;;;24.71;28.70
32456;BME280;18912;43.270;27.942;2022-09-20T11:46:59;97954.56;;;25.05;28.26
32456;BME280;18912;43.270;27.942;2022-09-20T11:58:12;97953.56;;;25.15;28.43
32456;BME280;18912;43.270;27.942;2022-09-20T12:00:43;97962.53;;;25.52;27.08
32456;BME280;18912;43.270;27.942;2022-09-20T12:05:57;97952.97;;;24.85;28.55
32456;BME280;18912;43.270;27.942;2022-09-20T12:08:29;97956.06;;;24.28;29.46
32456;BME280;18912;43.270;27.942;2022-09-20T12:11:09;97969.06;;;24.65;29.46
32456;BME280;18912;43.270;27.942;2022-09-20T12:13:40;97955.75;;;24.67;29.03
32456;BME280;18912;43.270;27.942;2022-09-20T12:16:15;97947.75;;;24.84;28.97
32456;BME280;18912;43.270;27.942;2022-09-20T12:21:19;97953.44;;;25.06;28.69
32456;BME280;18912;43.270;27.942;2022-09-20T12:24:14;97950.16;;;24.72;28.43
32456;BME280;18912;43.270;27.942;2022-09-20T12:26:42;97945.25;;;24.32;28.47
32456;BME280;18912;43.270;27.942;2022-09-20T12:34:52;97949.69;;;24.65;28.79
32456;BME280;18912;43.270;27.942;2022-09-20T12:37:22;97959.69;;;23.86;29.95
32456;BME280;18912;43.270;27.942;2022-09-20T12:39:52;97960.38;;;23.55;30.02
32456;BME280;18912;43.270;27.942;2022-09-20T12:42:28;97960.94;;;23.52;30.77
32456;BME280;18912;43.270;27.942;2022-09-20T12:44:59;97964.47;;;23.57;30.60
32456;BME280;18912;43.270;27.942;2022-09-20T12:47:28;97970.09;;;23.47;30.24
32456;BME280;18912;43.270;27.942;2022-09-20T12:49:56;97959.53;;;23.54;30.24
32456;BME280;18912;43.270;27.942;2022-09-20T12:55:51;97947.88;;;24.42;29.01
32456;BME280;18912;43.270;27.942;2022-09-20T13:11:19;97959.13;;;23.66;29.23
32456;BME280;18912;43.270;27.942;2022-09-20T13:13:49;97958.13;;;23.57;30.13
32456;BME280;18912;43.270;27.942;2022-09-20T13:16:28;97956.56;;;23.93;29.57
32456;BME280;18912;43.270;27.942;2022-09-20T13:19:03;97949.13;;;23.93;29.44
32456;BME280;18912;43.270;27.942;2022-09-20T13:21:36;97960.25;;;23.12;30.14
32456;BME280;18912;43.270;27.942;2022-09-20T13:24:04;97959.41;;;23.12;30.49
32456;BME280;18912;43.270;27.942;2022-09-20T13:26:34;97955.22;;;22.91;30.64
32456;BME280;18912;43.270;27.942;2022-09-20T13:29:07;97953.72;;;22.75;31.05
32456;BME280;18912;43.270;27.942;2022-09-20T13:31:35;97954.38;;;22.62;30.95
32456;BME280;18912;43.270;27.942;2022-09-20T13:34:20;97954.88;;;23.26;30.83
32456;BME280;18912;43.270;27.942;2022-09-20T13:36:47;97946.22;;;22.80;30.56
32456;BME280;18912;43.270;27.942;2022-09-20T13:39:23;97954.66;;;22.55;30.42
32456;BME280;18912;43.270;27.942;2022-09-20T13:41:50;97955.09;;;23.06;31.18
32456;BME280;18912;43.270;27.942;2022-09-20T13:44:16;97955.16;;;23.53;30.41
32456;BME280;18912;43.270;27.942;2022-09-20T13:46:43;97965.09;;;23.73;30.88
32456;BME280;18912;43.270;27.942;2022-09-20T13:49:16;97964.38;;;23.86;30.51
32456;BME280;18912;43.270;27.942;2022-09-20T13:51:46;97959.66;;;24.29;30.10
32456;BME280;18912;43.270;27.942;2022-09-20T13:54:24;97967.81;;;24.39;30.08
32456;BME280;18912;43.270;27.942;2022-09-20T13:56:54;97961.06;;;24.63;29.03
32456;BME280;18912;43.270;27.942;2022-09-20T13:59:21;97952.03;;;24.39;29.04
32456;BME280;18912;43.270;27.942;2022-09-20T14:01:52;97961.09;;;24.45;29.10
32456;BME280;18912;43.270;27.942;2022-09-20T14:04:27;97964.63;;;24.64;29.04
32456;BME280;18912;43.270;27.942;2022-09-20T14:06:56;97967.38;;;24.64;28.60
32456;BME280;18912;43.270;27.942;2022-09-20T14:09:32;97967.34;;;24.13;28.94
32456;BME280;18912;43.270;27.942;2022-09-20T14:11:59;97974.75;;;24.18;29.07
32456;BME280;18912;43.270;27.942;2022-09-20T14:14:26;97957.31;;;23.98;29.66
32456;BME280;18912;43.270;27.942;2022-09-20T14:16:54;97972.81;;;24.18;29.41
32456;BME280;18912;43.270;27.942;2022-09-20T14:19:28;97968.03;;;23.81;29.26
32456;BME280;18912;43.270;27.942;2022-09-20T14:21:56;97976.63;;;23.98;29.73
32456;BME280;18912;43.270;27.942;2022-09-20T14:24:34;97969.31;;;23.65;29.80
32456;BME280;18912;43.270;27.942;2022-09-20T14:27:16;97971.09;;;23.80;29.59
32456;BME280;18912;43.270;27.942;2022-09-20T14:29:47;97980.94;;;23.39;29.11
32456;BME280;18912;43.270;27.942;2022-09-20T14:34:58;97970.97;;;23.14;29.22
32456;BME280;18912;43.270;27.942;2022-09-20T14:40:05;97975.09;;;23.45;29.32
32456;BME280;18912;43.270;27.942;2022-09-20T14:42:42;97979.50;;;22.89;30.11
32456;BME280;18912;43.270;27.942;2022-09-20T14:45:35;97979.94;;;23.01;30.30
32456;BME280;18912;43.270;27.942;2022-09-20T14:48:04;97979.91;;;23.06;30.41
32456;BME280;18912;43.270;27.942;2022-09-20T14:50:41;97971.91;;;23.04;30.23
32456;BME280;18912;43.270;27.942;2022-09-20T14:55:34;97988.38;;;23.67;29.56
32456;BME280;18912;43.270;27.942;2022-09-20T14:58:11;97995.97;;;23.98;29.88
32456;BME280;18912;43.270;27.942;2022-09-20T15:03:35;97989.53;;;24.27;28.99
32456;BME280;18912;43.270;27.942;2022-09-20T15:06:03;98007.06;;;21.27;32.96
32456;BME280;18912;43.270;27.942;2022-09-20T15:08:29;98006.78;;;20.79;34.30
32456;BME280;18912;43.270;27.942;2022-09-20T15:10:54;98000.75;;;20.67;34.47
32456;BME280;18912;43.270;27.942;2022-09-20T15:13:20;98001.25;;;20.38;34.56
32456;BME280;18912;43.270;27.942;2022-09-20T15:15:50;98000.16;;;20.29;34.57
32456;BME280;18912;43.270;27.942;2022-09-20T15:18:49;98002.28;;;20.07;34.78
32456;BME280;18912;43.270;27.942;2022-09-20T15:21:14;98000.16;;;20.24;35.10
32456;BME280;18912;43.270;27.942;2022-09-20T15:23:40;97995.16;;;20.16;35.17
32456;BME280;18912;43.270;27.942;2022-09-20T15:26:06;98003.53;;;19.75;34.64
32456;BME280;18912;43.270;27.942;2022-09-20T15:28:33;98002.13;;;19.67;35.19
32456;BME280;18912;43.270;27.942;2022-09-20T15:30:58;98005.59;;;19.47;35.23
32456;BME280;18912;43.270;27.942;2022-09-20T15:33:24;98014.09;;;19.46;35.87
32456;BME280;18912;43.270;27.942;2022-09-20T15:35:53;98007.25;;;19.48;36.10
32456;BME280;18912;43.270;27.942;2022-09-20T15:38:18;98013.88;;;19.52;35.56
32456;BME280;18912;43.270;27.942;2022-09-20T15:40:48;98016.63;;;19.58;36.22
32456;BME280;18912;43.270;27.942;2022-09-20T15:43:18;98014.97;;;19.56;36.05
32456;BME280;18912;43.270;27.942;2022-09-20T15:45:50;98018.25;;;19.58;36.20
32456;BME280;18912;43.270;27.942;2022-09-20T15:48:20;98016.13;;;19.66;36.47
32456;BME280;18912;43.270;27.942;2022-09-20T15:51:05;98025.72;;;19.68;36.71
32456;BME280;18912;43.270;27.942;2022-09-20T15:53:35;98018.59;;;19.72;36.84
32456;BME280;18912;43.270;27.942;2022-09-20T15:56:03;98013.69;;;19.74;36.98
32456;BME280;18912;43.270;27.942;2022-09-20T15:58:30;98019.72;;;19.71;36.68
32456;BME280;18912;43.270;27.942;2022-09-20T16:01:05;98020.22;;;19.63;36.52
32456;BME280;18912;43.270;27.942;2022-09-20T16:03:31;98021.84;;;19.59;37.51
32456;BME280;18912;43.270;27.942;2022-09-20T16:06:01;98026.19;;;19.55;37.84
32456;BME280;18912;43.270;27.942;2022-09-20T16:08:31;98015.75;;;19.47;37.83
32456;BME280;18912;43.270;27.942;2022-09-20T16:10:58;98024.44;;;19.34;38.65
32456;BME280;18912;43.270;27.942;2022-09-20T16:13:24;98027.63;;;19.21;38.83
32456;BME280;18912;43.270;27.942;2022-09-20T16:15:57;98035.78;;;19.11;38.93
32456;BME280;18912;43.270;27.942;2022-09-20T16:18:23;98029.66;;;18.99;39.36
32456;BME280;18912;43.270;27.942;2022-09-20T16:21:09;98030.63;;;18.83;39.42
32456;BME280;18912;43.270;27.942;2022-09-20T16:23:36;98036.59;;;18.75;39.53
32456;BME280;18912;43.270;27.942;2022-09-20T16:26:04;98039.72;;;18.56;39.62
32456;BME280;18912;43.270;27.942;2022-09-20T16:28:30;98044.97;;;18.36;40.40
32456;BME280;18912;43.270;27.942;2022-09-20T16:30:57;98037.31;;;18.12;41.50
32456;BME280;18912;43.270;27.942;2022-09-20T16:33:23;98046.28;;;18.07;41.77
32456;BME280;18912;43.270;27.942;2022-09-20T16:35:48;98040.94;;;17.96;41.62
32456;BME280;18912;43.270;27.942;2022-09-20T16:38:14;98044.25;;;17.76;42.39
32456;BME280;18912;43.270;27.942;2022-09-20T16:40:41;98051.19;;;17.62;42.29
32456;BME280;18912;43.270;27.942;2022-09-20T16:43:07;98046.44;;;17.52;42.79
32456;BME280;18912;43.270;27.942;2022-09-20T16:45:35;98052.28;;;17.44;42.86
32456;BME280;18912;43.270;27.942;2022-09-20T16:48:01;98057.59;;;17.34;43.25
32456;BME280;18912;43.270;27.942;2022-09-20T16:50:28;98057.97;;;17.21;43.65
32456;BME280;18912;43.270;27.942;2022-09-20T16:52:53;98039.06;;;16.98;43.59
32456;BME280;18912;43.270;27.942;2022-09-20T16:55:19;98057.94;;;17.00;44.16
32456;BME280;18912;43.270;27.942;2022-09-20T16:57:48;98063.63;;;16.81;44.69
32456;BME280;18912;43.270;27.942;2022-09-20T17:00:14;98061.41;;;16.78;45.33
32456;BME280;18912;43.270;27.942;2022-09-20T17:02:41;98060.81;;;16.76;45.40
32456;BME280;18912;43.270;27.942;2022-09-20T17:05:07;98065.69;;;16.58;46.16
32456;BME280;18912;43.270;27.942;2022-09-20T17:07:33;98062.53;;;16.49;46.53
32456;BME280;18912;43.270;27.942;2022-09-20T17:09:58;98060.00;;;16.31;47.14
32456;BME280;18912;43.270;27.942;2022-09-20T17:12:26;98068.56;;;16.23;47.37
32456;BME280;18912;43.270;27.942;2022-09-20T17:14:57;98071.69;;;16.15;47.70
32456;BME280;18912;43.270;27.942;2022-09-20T17:17:22;98071.25;;;16.07;48.15
32456;BME280;18912;43.270;27.942;2022-09-20T17:19:48;98076.25;;;15.98;48.00
32456;BME280;18912;43.270;27.942;2022-09-20T17:22:13;98082.66;;;15.92;47.42
32456;BME280;18912;43.270;27.942;2022-09-20T17:24:39;98084.13;;;15.83;46.36
32456;BME280;18912;43.270;27.942;2022-09-20T17:27:05;98083.31;;;15.71;46.60
32456;BME280;18912;43.270;27.942;2022-09-20T17:29:31;98083.81;;;15.56;46.89
32456;BME280;18912;43.270;27.942;2022-09-20T17:31:56;98087.03;;;15.42;47.93
32456;BME280;18912;43.270;27.942;2022-09-20T17:34:25;98091.66;;;15.41;48.58
32456;BME280;18912;43.270;27.942;2022-09-20T17:36:52;98062.41;;;15.14;49.00
32456;BME280;18912;43.270;27.942;2022-09-20T17:39:19;98095.78;;;15.21;49.60
32456;BME280;18912;43.270;27.942;2022-09-20T17:41:46;98085.22;;;15.01;49.67
32456;BME280;18912;43.270;27.942;2022-09-20T17:44:12;98096.94;;;14.90;50.02
32456;BME280;18912;43.270;27.942;2022-09-20T17:46:39;98106.06;;;14.95;50.42
32456;BME280;18912;43.270;27.942;2022-09-20T17:49:07;98100.97;;;14.87;50.80
32456;BME280;18912;43.270;27.942;2022-09-20T17:51:40;98106.16;;;14.77;50.93
32456;BME280;18912;43.270;27.942;2022-09-20T17:54:06;98104.09;;;14.61;51.20
32456;BME280;18912;43.270;27.942;2022-09-20T17:56:33;98100.56;;;14.61;51.67
32456;BME280;18912;43.270;27.942;2022-09-20T17:59:01;98096.75;;;14.50;51.92
32456;BME280;18912;43.270;27.942;2022-09-20T18:01:29;98097.84;;;14.49;52.41
32456;BME280;18912;43.270;27.942;2022-09-20T18:03:59;98105.47;;;14.41;52.75
32456;BME280;18912;43.270;27.942;2022-09-20T18:08:59;98120.75;;;14.24;53.05
32456;BME280;18912;43.270;27.942;2022-09-20T18:11:35;98116.59;;;14.21;53.56
32456;BME280;18912;43.270;27.942;2022-09-20T18:14:02;98121.78;;;14.11;53.75
32456;BME280;18912;43.270;27.942;2022-09-20T18:16:28;98125.22;;;14.00;54.22